createdAt,value
2022-09-07T00:01:00.689Z,3.30
2022-09-07T00:03:27.437Z,3.28
2022-09-07T00:05:54.114Z,3.33
2022-09-07T00:08:23.178Z,4.47
2022-09-07T00:10:58.510Z,4.32
2022-09-07T00:13:27.109Z,3.58
2022-09-07T00:15:53.724Z,3.58
2022-09-07T00:18:20.596Z,3.63
2022-09-07T00:20:47.079Z,4.47
2022-09-07T00:23:13.736Z,4.45
2022-09-07T00:25:40.743Z,4.18
2022-09-07T00:28:08.152Z,4.22
2022-09-07T00:30:35.187Z,5.13
2022-09-07T00:33:01.729Z,4.25
2022-09-07T00:35:28.327Z,4.50
2022-09-07T00:37:55.126Z,4.60
2022-09-07T00:40:21.674Z,4.72
2022-09-07T00:42:48.238Z,3.90
2022-09-07T00:45:17.228Z,4.80
2022-09-07T00:47:57.279Z,4.43
2022-09-07T00:50:33.167Z,4.93
2022-09-07T00:53:04.146Z,4.57
2022-09-07T00:55:32.602Z,5.15
2022-09-07T00:57:59.202Z,4.40
2022-09-07T01:00:26.765Z,4.70
2022-09-07T01:02:55.125Z,4.68
2022-09-07T01:05:43.637Z,4.50
2022-09-07T01:08:12.067Z,4.85
2022-09-07T01:10:38.810Z,4.50
2022-09-07T01:13:05.865Z,4.30
2022-09-07T01:15:43.942Z,4.10
2022-09-07T01:18:24.999Z,3.88
2022-09-07T01:21:10.104Z,3.67
2022-09-07T01:23:46.053Z,4.35
2022-09-07T01:26:30.193Z,4.00
2022-09-07T01:29:05.783Z,3.40
2022-09-07T01:31:56.741Z,4.05
2022-09-07T01:34:25.436Z,4.03
2022-09-07T01:37:27.575Z,4.20
2022-09-07T01:40:07.925Z,4.57
2022-09-07T01:42:42.647Z,5.00
2022-09-07T01:45:12.810Z,5.50
2022-09-07T01:47:43.491Z,4.63
2022-09-07T01:50:20.105Z,5.30
2022-09-07T01:52:54.111Z,6.07
2022-09-07T01:55:41.418Z,6.00
2022-09-07T01:58:11.793Z,5.90
2022-09-07T02:00:40.702Z,5.72
2022-09-07T02:03:13.521Z,7.00
2022-09-07T02:05:45.731Z,7.13
2022-09-07T02:08:12.225Z,7.32
2022-09-07T02:10:42.059Z,7.65
2022-09-07T02:13:15.517Z,7.80
2022-09-07T02:15:45.439Z,8.60
2022-09-07T02:18:14.172Z,8.68
2022-09-07T02:20:44.967Z,8.80
2022-09-07T02:23:16.318Z,8.25
2022-09-07T02:28:24.128Z,8.43
2022-09-07T02:30:50.954Z,8.15
2022-09-07T02:33:17.847Z,8.68
2022-09-07T02:35:44.475Z,9.50
2022-09-07T02:38:11.078Z,11.07
2022-09-07T02:40:38.127Z,12.90
2022-09-07T02:43:07.000Z,12.55
2022-09-07T02:46:04.583Z,13.13
2022-09-07T02:48:49.701Z,15.98
2022-09-07T02:51:37.566Z,18.95
2022-09-07T02:54:21.985Z,21.42
2022-09-07T02:57:11.110Z,22.27
2022-09-07T03:00:05.617Z,25.02
2022-09-07T03:03:02.780Z,28.05
2022-09-07T03:05:37.689Z,29.90
2022-09-07T03:08:09.121Z,31.92
2022-09-07T03:10:38.055Z,34.33
2022-09-07T03:13:04.593Z,34.13
2022-09-07T03:15:31.180Z,34.63
2022-09-07T03:17:57.741Z,35.70
2022-09-07T03:20:24.429Z,36.80
2022-09-07T03:22:52.043Z,33.90
2022-09-07T03:25:19.437Z,33.22
2022-09-07T03:27:45.993Z,34.75
2022-09-07T03:30:13.178Z,31.33
2022-09-07T03:32:39.960Z,30.10
2022-09-07T03:35:08.007Z,31.00
2022-09-07T03:37:38.145Z,27.48
2022-09-07T03:40:06.534Z,27.00
2022-09-07T03:42:33.118Z,27.20
2022-09-07T03:44:59.650Z,26.45
2022-09-07T03:47:26.163Z,28.02
2022-09-07T03:49:52.676Z,26.45
2022-09-07T03:52:19.252Z,26.30
2022-09-07T03:54:46.297Z,26.58
2022-09-07T03:57:13.212Z,25.77
2022-09-07T03:59:39.730Z,26.65
2022-09-07T04:02:06.346Z,26.98
2022-09-07T04:04:33.135Z,25.73
2022-09-07T04:06:59.605Z,25.95
2022-09-07T04:09:26.152Z,25.92
2022-09-07T04:11:52.695Z,27.90
2022-09-07T04:14:19.301Z,29.30
2022-09-07T04:16:46.029Z,29.90
2022-09-07T04:19:13.090Z,28.92
2022-09-07T04:21:39.877Z,32.20
2022-09-07T04:24:06.777Z,32.00
2022-09-07T04:26:34.492Z,31.73
2022-09-07T04:29:01.315Z,32.72
2022-09-07T04:31:27.981Z,31.67
2022-09-07T04:33:55.240Z,31.70
2022-09-07T04:36:22.323Z,30.75
2022-09-07T04:39:03.830Z,35.67
2022-09-07T04:44:00.104Z,32.80
2022-09-07T04:46:33.537Z,34.10
2022-09-07T04:49:02.429Z,32.28
2022-09-07T04:51:31.062Z,32.33
2022-09-07T04:53:59.704Z,31.85
2022-09-07T04:56:26.545Z,30.67
2022-09-07T04:58:53.225Z,33.05
2022-09-07T05:01:21.968Z,33.28
2022-09-07T05:03:48.725Z,34.10
2022-09-07T05:06:17.424Z,34.05
2022-09-07T05:08:46.309Z,34.60
2022-09-07T05:11:13.612Z,33.47
2022-09-07T05:13:40.423Z,36.90
2022-09-07T05:16:18.409Z,34.17
2022-09-07T05:18:48.836Z,33.40
2022-09-07T05:21:17.499Z,34.30
2022-09-07T05:23:44.065Z,35.28
2022-09-07T05:26:11.562Z,33.97
2022-09-07T05:28:38.720Z,32.47
2022-09-07T05:38:59.138Z,35.33
2022-09-07T05:41:26.590Z,36.50
2022-09-07T05:46:41.262Z,36.38
2022-09-07T05:49:08.050Z,35.72
2022-09-07T05:51:34.576Z,35.65
2022-09-07T05:54:01.302Z,37.28
2022-09-07T05:56:27.848Z,33.53
2022-09-07T05:58:54.541Z,34.63
2022-09-07T06:01:21.063Z,37.20
2022-09-07T06:03:47.554Z,36.17
2022-09-07T06:06:16.822Z,33.72
2022-09-07T06:08:45.927Z,34.47
2022-09-07T06:11:16.601Z,33.92
2022-09-07T06:13:43.259Z,35.53
2022-09-07T06:16:11.335Z,32.92
2022-09-07T06:18:43.755Z,35.70
2022-09-07T06:21:15.724Z,34.15
2022-09-07T06:23:42.961Z,32.13
2022-09-07T06:26:10.697Z,33.28
2022-09-07T06:28:39.323Z,27.83
2022-09-07T06:31:11.496Z,28.17
2022-09-07T06:33:38.125Z,27.20
2022-09-07T06:36:18.397Z,25.75
2022-09-07T06:38:45.316Z,26.40
2022-09-07T06:44:00.884Z,19.38
2022-09-07T06:49:13.948Z,16.15
2022-09-07T06:51:40.507Z,14.55
2022-09-07T06:56:53.672Z,14.27
2022-09-07T06:59:20.209Z,13.52
2022-09-07T07:01:46.814Z,12.63
2022-09-07T07:04:13.917Z,14.60
2022-09-07T07:06:40.522Z,13.45
2022-09-07T07:09:08.394Z,13.68
2022-09-07T07:11:37.097Z,13.05
2022-09-07T07:14:04.032Z,12.25
2022-09-07T07:16:31.029Z,11.05
2022-09-07T07:18:57.938Z,9.82
2022-09-07T07:21:24.496Z,10.23
2022-09-07T07:23:52.350Z,8.45
2022-09-07T07:26:21.362Z,9.25
2022-09-07T07:29:07.072Z,9.38
2022-09-07T07:31:34.933Z,8.70
2022-09-07T07:34:03.615Z,9.90
2022-09-07T07:36:30.834Z,9.75
2022-09-07T07:44:17.953Z,11.50
2022-09-07T07:46:47.987Z,11.23
2022-09-07T07:49:14.623Z,11.13
2022-09-07T07:54:27.568Z,10.40
2022-09-07T07:56:54.053Z,11.25
2022-09-07T07:59:20.615Z,10.30
2022-09-07T08:01:47.139Z,9.52
2022-09-07T08:04:13.821Z,9.32
2022-09-07T08:06:42.631Z,8.95
2022-09-07T08:09:09.334Z,8.60
2022-09-07T08:11:35.813Z,8.48
2022-09-07T08:14:05.817Z,8.52
2022-09-07T08:16:33.026Z,7.63
2022-09-07T08:19:01.586Z,7.35
2022-09-07T08:21:28.175Z,7.80
2022-09-07T08:23:55.315Z,8.02
2022-09-07T08:26:21.760Z,8.25
2022-09-07T08:28:48.398Z,8.07
2022-09-07T08:31:16.246Z,7.72
2022-09-07T08:33:43.083Z,8.35
2022-09-07T08:36:13.247Z,8.30
2022-09-07T08:38:40.116Z,7.45
2022-09-07T08:41:43.248Z,9.10
2022-09-07T08:44:15.595Z,7.82
2022-09-07T08:46:47.830Z,8.35
2022-09-07T08:49:27.219Z,7.35
2022-09-07T08:51:58.936Z,7.75
2022-09-07T08:54:25.439Z,8.05
2022-09-07T08:59:48.781Z,7.90
2022-09-07T09:02:38.471Z,6.97
2022-09-07T09:05:20.597Z,8.10
2022-09-07T09:08:00.313Z,7.20
2022-09-07T09:11:00.014Z,6.72
2022-09-07T09:13:55.244Z,6.78
2022-09-07T09:16:42.864Z,5.75
2022-09-07T09:19:40.919Z,4.88
2022-09-07T09:22:14.548Z,5.25
2022-09-07T09:24:46.885Z,5.20
2022-09-07T09:27:13.381Z,5.15
2022-09-07T09:29:40.005Z,5.10
2022-09-07T09:32:35.776Z,5.00
2022-09-07T09:35:35.372Z,4.43
2022-09-07T09:38:05.143Z,4.32
2022-09-07T09:40:35.758Z,4.53
2022-09-07T09:43:07.144Z,3.90
2022-09-07T09:48:34.026Z,4.00
2022-09-07T09:53:55.039Z,3.65
2022-09-07T09:56:22.813Z,3.33
2022-09-07T09:59:05.260Z,3.47
2022-09-07T10:01:36.253Z,3.90
2022-09-07T10:04:30.141Z,4.07
2022-09-07T10:07:17.349Z,3.75
2022-09-07T10:09:49.745Z,4.50
2022-09-07T10:12:36.049Z,4.38
2022-09-07T10:15:05.419Z,3.88
2022-09-07T10:17:41.834Z,3.70
2022-09-07T10:20:17.090Z,3.95
2022-09-07T10:23:04.968Z,4.10
2022-09-07T10:25:41.356Z,4.47
2022-09-07T10:28:14.034Z,4.18
2022-09-07T10:31:14.990Z,4.55
2022-09-07T10:36:59.047Z,4.07
2022-09-07T10:39:26.963Z,3.97
2022-09-07T10:42:07.249Z,4.13
2022-09-07T10:44:33.618Z,4.07
2022-09-07T10:47:12.433Z,4.97
2022-09-07T10:53:18.042Z,4.93
2022-09-07T10:56:04.225Z,5.80
2022-09-07T11:02:01.977Z,5.40
2022-09-07T11:07:38.338Z,4.85
2022-09-07T11:10:24.407Z,5.00
2022-09-07T11:12:51.992Z,4.30
2022-09-07T11:15:28.333Z,3.63
2022-09-07T11:18:02.969Z,4.20
2022-09-07T11:20:55.125Z,4.03
2022-09-07T11:23:40.943Z,4.28
2022-09-07T11:26:20.744Z,3.90
2022-09-07T11:32:12.967Z,3.83
2022-09-07T11:34:41.634Z,4.72
2022-09-07T11:37:15.654Z,4.00
2022-09-07T11:39:48.520Z,4.25
2022-09-07T11:45:19.455Z,4.50
2022-09-07T11:47:56.284Z,3.05
2022-09-07T11:50:23.832Z,3.60
2022-09-07T11:52:54.241Z,3.60
2022-09-07T11:55:25.313Z,4.00
2022-09-07T11:58:29.951Z,4.07
2022-09-07T12:01:25.746Z,4.10
2022-09-07T12:04:15.140Z,4.30
2022-09-07T12:07:04.458Z,3.72
2022-09-07T12:09:31.095Z,3.35
2022-09-07T12:12:35.155Z,3.10
2022-09-07T12:15:14.229Z,3.40
2022-09-07T12:17:59.061Z,2.90
2022-09-07T12:20:46.413Z,3.30
2022-09-07T12:23:17.170Z,3.00
2022-09-07T12:25:51.192Z,3.28
2022-09-07T12:28:23.457Z,2.78
2022-09-07T12:31:05.313Z,3.00
2022-09-07T12:33:34.474Z,2.75
2022-09-07T12:36:02.081Z,2.28
2022-09-07T12:38:31.381Z,2.40
2022-09-07T12:41:02.506Z,2.10
2022-09-07T12:43:53.248Z,2.28
2022-09-07T12:46:44.071Z,2.50
2022-09-07T12:49:23.946Z,1.70
2022-09-07T12:52:03.277Z,1.65
2022-09-07T12:55:23.638Z,1.30
2022-09-07T12:57:54.623Z,1.60
2022-09-07T13:00:24.270Z,1.50
2022-09-07T13:07:01.779Z,1.33
2022-09-07T13:09:33.464Z,2.10
2022-09-07T13:12:01.654Z,1.23
2022-09-07T13:14:29.111Z,1.13
2022-09-07T13:17:41.453Z,1.10
2022-09-07T13:20:10.656Z,1.15
2022-09-07T13:22:37.430Z,1.02
2022-09-07T13:25:23.850Z,1.13
2022-09-07T13:28:10.689Z,1.30
2022-09-07T13:31:15.602Z,1.30
2022-09-07T13:33:48.121Z,1.15
2022-09-07T13:36:39.341Z,1.30
2022-09-07T13:39:09.491Z,1.13
2022-09-07T13:41:38.568Z,1.37
2022-09-07T13:44:05.866Z,1.08
2022-09-07T13:46:42.897Z,1.40
2022-09-07T13:49:22.232Z,1.10
2022-09-07T13:52:07.378Z,1.88
2022-09-07T13:54:53.420Z,0.73
2022-09-07T13:57:50.397Z,0.95
2022-09-07T14:00:17.581Z,1.48
2022-09-07T14:02:44.262Z,1.10
2022-09-07T14:05:11.825Z,0.98
2022-09-07T14:07:44.713Z,1.17
2022-09-07T14:10:20.625Z,0.95
2022-09-07T14:12:52.999Z,1.00
2022-09-07T14:15:29.420Z,1.30
2022-09-07T14:18:11.568Z,0.77
2022-09-07T14:20:41.759Z,1.20
2022-09-07T14:23:13.071Z,0.98
2022-09-07T14:28:36.918Z,0.93
2022-09-07T14:31:03.659Z,1.23
2022-09-07T14:33:31.221Z,1.00
2022-09-07T14:35:58.582Z,1.05
2022-09-07T14:41:18.776Z,1.25
2022-09-07T14:43:56.104Z,1.10
2022-09-07T14:46:25.908Z,1.00
2022-09-07T14:49:01.496Z,1.10
2022-09-07T14:51:36.553Z,1.50
2022-09-07T14:54:05.787Z,1.02
2022-09-07T14:56:40.735Z,1.63
2022-09-07T14:59:28.649Z,1.10
2022-09-07T15:02:21.988Z,1.20
2022-09-07T15:04:50.538Z,1.27
2022-09-07T15:07:40.035Z,1.20
2022-09-07T15:10:26.664Z,1.38
2022-09-07T15:12:55.603Z,1.20
2022-09-07T15:15:33.631Z,1.30
2022-09-07T15:18:08.784Z,1.40
2022-09-07T15:20:44.936Z,1.33
2022-09-07T15:23:20.239Z,1.30
2022-09-07T15:25:51.986Z,1.02
2022-09-07T15:34:02.346Z,1.10
2022-09-07T15:36:28.979Z,1.13
2022-09-07T15:38:59.869Z,1.02
2022-09-07T15:41:27.648Z,1.13
2022-09-07T15:43:54.434Z,1.38
2022-09-07T15:46:21.313Z,1.10
2022-09-07T15:48:53.865Z,1.00
2022-09-07T15:54:13.823Z,1.30
2022-09-07T15:56:42.385Z,1.10
2022-09-07T15:59:09.952Z,1.55
2022-09-07T16:01:52.957Z,1.10
2022-09-07T16:04:20.521Z,1.17
2022-09-07T16:06:48.416Z,1.30
2022-09-07T16:09:15.414Z,1.35
2022-09-07T16:11:41.972Z,1.30
2022-09-07T16:14:11.805Z,1.25
2022-09-07T16:19:26.143Z,1.52
2022-09-07T16:21:52.687Z,1.30
2022-09-07T16:24:19.298Z,1.30
2022-09-07T16:26:45.892Z,1.15
2022-09-07T16:29:12.421Z,1.30
2022-09-07T16:32:43.941Z,1.15
2022-09-07T16:34:26.603Z,1.20
2022-09-07T16:36:53.165Z,1.38
2022-09-07T16:39:20.281Z,1.40
2022-09-07T16:41:46.759Z,1.40
2022-09-07T16:44:13.318Z,1.42
2022-09-07T16:46:39.800Z,1.05
2022-09-07T16:49:07.425Z,1.20
2022-09-07T16:51:35.497Z,1.05
2022-09-07T16:54:01.971Z,1.20
2022-09-07T16:56:30.529Z,1.25
2022-09-07T16:58:59.541Z,1.23
2022-09-07T17:01:28.843Z,1.17
2022-09-07T17:03:55.622Z,1.50
2022-09-07T17:06:24.665Z,1.08
2022-09-07T17:08:51.855Z,1.40
2022-09-07T17:11:24.651Z,1.45
2022-09-07T17:13:51.944Z,1.20
2022-09-07T17:16:21.340Z,1.25
2022-09-07T17:21:37.114Z,1.50
2022-09-07T17:24:05.156Z,1.70
2022-09-07T17:26:32.246Z,1.73
2022-09-07T17:29:00.648Z,2.03
2022-09-07T17:34:16.344Z,1.90
2022-09-07T17:36:43.101Z,2.60
2022-09-07T17:39:18.420Z,2.20
2022-09-07T17:41:46.250Z,2.80
2022-09-07T17:44:13.524Z,3.15
2022-09-07T17:46:40.110Z,2.50
2022-09-07T17:49:10.042Z,2.72
2022-09-07T17:51:36.709Z,2.50
2022-09-07T17:54:12.958Z,2.40
2022-09-07T17:56:40.747Z,2.17
2022-09-07T18:01:54.747Z,2.22
2022-09-07T18:04:21.867Z,2.45
2022-09-07T18:06:48.584Z,2.47
2022-09-07T18:09:15.679Z,2.60
2022-09-07T18:11:45.059Z,2.53
2022-09-07T18:14:14.089Z,2.55
2022-09-07T18:16:40.685Z,2.15
2022-09-07T18:19:08.411Z,2.60
2022-09-07T18:21:36.847Z,2.20
2022-09-07T18:24:07.843Z,2.55
2022-09-07T18:26:38.892Z,2.25
2022-09-07T18:29:13.116Z,3.05
2022-09-07T18:31:53.032Z,2.47
2022-09-07T18:34:20.761Z,2.70
2022-09-07T18:36:47.559Z,2.30
2022-09-07T18:39:14.357Z,2.03
2022-09-07T18:41:41.937Z,2.58
2022-09-07T18:45:26.988Z,2.65
2022-09-07T18:46:55.157Z,2.47
2022-09-07T18:49:21.721Z,2.75
2022-09-07T18:54:34.711Z,2.53
2022-09-07T18:57:01.183Z,2.25
2022-09-07T18:59:28.115Z,2.50
2022-09-07T19:02:00.140Z,2.85
2022-09-07T19:05:49.704Z,2.20
2022-09-07T19:07:17.347Z,2.30
2022-09-07T19:09:43.887Z,2.47
2022-09-07T19:12:10.429Z,2.33
2022-09-07T19:14:36.927Z,2.25
2022-09-07T19:17:03.509Z,2.28
2022-09-07T19:19:30.220Z,2.63
2022-09-07T19:21:58.128Z,2.40
2022-09-07T19:24:25.630Z,2.58
2022-09-07T19:26:55.747Z,2.60
2022-09-07T19:29:25.060Z,2.90
2022-09-07T19:32:04.727Z,2.50
2022-09-07T19:34:33.067Z,2.60
2022-09-07T19:37:00.307Z,2.88
2022-09-07T19:39:26.969Z,2.60
2022-09-07T19:41:53.674Z,3.03
2022-09-07T19:44:20.357Z,3.95
2022-09-07T19:46:46.907Z,3.17
2022-09-07T19:49:13.681Z,2.88
2022-09-07T19:51:40.288Z,2.50
2022-09-07T19:54:08.662Z,2.58
2022-09-07T19:56:37.748Z,3.00
2022-09-07T19:59:04.271Z,3.17
2022-09-07T20:01:31.045Z,2.88
2022-09-07T20:03:59.985Z,3.47
2022-09-07T20:06:27.450Z,3.22
2022-09-07T20:08:54.820Z,3.15
2022-09-07T20:11:21.325Z,3.50
2022-09-07T20:13:47.807Z,3.58
2022-09-07T20:16:18.155Z,4.80
2022-09-07T20:18:46.008Z,6.68
2022-09-07T20:21:17.773Z,3.53
2022-09-07T20:23:44.612Z,3.85
2022-09-07T20:26:13.307Z,3.55
2022-09-07T20:28:40.745Z,3.42
2022-09-07T20:31:11.478Z,4.10
2022-09-07T20:33:37.955Z,4.18
2022-09-07T20:36:06.806Z,3.78
2022-09-07T20:38:40.281Z,3.47
2022-09-07T20:41:07.445Z,3.40
2022-09-07T20:43:34.157Z,3.83
2022-09-07T20:46:00.772Z,3.72
2022-09-07T20:48:27.641Z,3.42
2022-09-07T20:50:58.154Z,3.67
2022-09-07T20:53:25.229Z,3.67
2022-09-07T20:56:03.273Z,3.58
2022-09-07T20:58:30.817Z,3.75
2022-09-07T21:00:57.790Z,3.78
2022-09-07T21:03:25.012Z,4.32
2022-09-07T21:05:51.773Z,3.42
2022-09-07T21:08:18.437Z,3.60
2022-09-07T21:10:45.949Z,3.60
2022-09-07T21:13:12.916Z,4.25
2022-09-07T21:15:43.429Z,3.63
2022-09-07T21:18:15.891Z,4.50
2022-09-07T21:20:57.891Z,3.25
2022-09-07T21:23:31.531Z,3.63
2022-09-07T21:25:59.437Z,3.83
2022-09-07T21:28:26.532Z,3.92
2022-09-07T21:31:05.833Z,3.90
2022-09-07T21:33:34.410Z,5.00
2022-09-07T21:36:12.087Z,4.00
2022-09-07T21:38:40.596Z,3.63
2022-09-07T21:41:09.433Z,3.40
2022-09-07T21:43:35.972Z,3.65
2022-09-07T21:46:12.510Z,3.55
2022-09-07T21:48:39.556Z,3.42
2022-09-07T21:51:06.371Z,4.13
2022-09-07T21:53:33.115Z,4.15
2022-09-07T21:56:10.813Z,3.58
2022-09-07T21:58:37.321Z,4.28
2022-09-07T22:01:17.014Z,3.55
2022-09-07T22:03:44.972Z,3.30
2022-09-07T22:06:11.608Z,3.45
2022-09-07T22:08:40.044Z,3.85
2022-09-07T22:11:08.974Z,3.70
2022-09-07T22:13:35.719Z,3.63
2022-09-07T22:16:03.360Z,3.70
2022-09-07T22:18:30.259Z,3.58
2022-09-07T22:21:10.961Z,3.63
2022-09-07T22:23:40.468Z,3.45
2022-09-07T22:26:07.765Z,3.50
2022-09-07T22:28:34.935Z,3.70
2022-09-07T22:31:13.222Z,3.40
2022-09-07T22:33:40.677Z,3.47
2022-09-07T22:36:11.253Z,3.33
2022-09-07T22:38:38.213Z,3.50
2022-09-07T22:41:12.866Z,3.53
2022-09-07T22:43:39.700Z,3.22
2022-09-07T22:46:06.612Z,3.63
2022-09-07T22:48:33.235Z,3.28
2022-09-07T22:51:00.295Z,3.28
2022-09-07T22:53:32.441Z,3.20
2022-09-07T22:55:59.761Z,3.35
2022-09-07T22:58:28.910Z,3.25
2022-09-07T23:01:01.339Z,3.33
2022-09-07T23:03:28.404Z,3.58
2022-09-07T23:05:55.480Z,3.03
2022-09-07T23:08:22.108Z,3.20
2022-09-07T23:10:48.565Z,3.17
2022-09-07T23:13:16.789Z,2.90
2022-09-07T23:15:43.776Z,3.33
2022-09-07T23:18:18.149Z,2.80
2022-09-07T23:20:44.795Z,3.03
2022-09-07T23:23:11.405Z,3.25
2022-09-07T23:25:38.842Z,3.22
2022-09-07T23:28:06.197Z,3.42
2022-09-07T23:30:35.361Z,3.08
2022-09-07T23:33:02.629Z,3.42
2022-09-07T23:35:29.345Z,3.28
2022-09-07T23:37:55.981Z,3.28
2022-09-07T23:40:22.593Z,3.05
2022-09-07T23:42:49.179Z,3.22
2022-09-07T23:45:15.776Z,3.40
2022-09-07T23:47:42.222Z,4.68
2022-09-07T23:50:09.744Z,3.15
2022-09-07T23:52:37.132Z,3.08
2022-09-07T23:55:04.431Z,3.30
2022-09-07T23:57:31.724Z,3.33
2022-09-07T23:59:58.743Z,3.03
